createdAt,value
2022-08-24T00:01:21.870Z,19.46
2022-08-24T00:03:45.360Z,19.52
2022-08-24T00:06:09.412Z,19.49
2022-08-24T00:08:31.181Z,19.46
2022-08-24T00:10:52.623Z,19.54
2022-08-24T00:13:14.491Z,19.57
2022-08-24T00:15:36.103Z,19.54
2022-08-24T00:17:57.710Z,19.55
2022-08-24T00:20:19.210Z,19.51
2022-08-24T00:22:41.199Z,19.37
2022-08-24T00:25:03.404Z,19.37
2022-08-24T00:27:24.861Z,19.38
2022-08-24T00:29:46.294Z,19.44
2022-08-24T00:32:07.776Z,19.33
2022-08-24T00:34:30.054Z,19.28
2022-08-24T00:36:51.513Z,19.22
2022-08-24T00:39:13.390Z,19.16
2022-08-24T00:41:35.961Z,19.24
2022-08-24T00:44:04.453Z,19.29
2022-08-24T00:46:33.893Z,19.27
2022-08-24T00:49:03.683Z,19.29
2022-08-24T00:51:33.451Z,19.28
2022-08-24T00:54:04.953Z,19.32
2022-08-24T00:56:41.839Z,19.21
2022-08-24T00:59:14.881Z,19.15
2022-08-24T01:01:36.456Z,19.12
2022-08-24T01:03:58.558Z,19.11
2022-08-24T01:06:20.023Z,19.00
2022-08-24T01:08:41.512Z,19.06
2022-08-24T01:11:14.866Z,19.00
2022-08-24T01:13:36.291Z,19.03
2022-08-24T01:16:02.788Z,18.92
2022-08-24T01:18:44.913Z,18.95
2022-08-24T01:21:23.429Z,18.93
2022-08-24T01:23:55.173Z,18.79
2022-08-24T01:26:21.041Z,18.78
2022-08-24T01:28:44.889Z,18.59
2022-08-24T01:31:07.080Z,18.54
2022-08-24T01:33:31.651Z,18.62
2022-08-24T01:36:04.696Z,18.65
2022-08-24T01:38:26.627Z,18.63
2022-08-24T01:41:15.945Z,18.73
2022-08-24T01:43:37.554Z,18.65
2022-08-24T01:45:59.030Z,18.73
2022-08-24T01:48:23.241Z,18.70
2022-08-24T01:50:44.855Z,18.81
2022-08-24T01:53:06.660Z,18.80
2022-08-24T01:55:28.637Z,18.78
2022-08-24T01:57:50.092Z,18.76
2022-08-24T02:00:17.102Z,18.84
2022-08-24T02:02:38.740Z,18.83
2022-08-24T02:05:00.520Z,18.63
2022-08-24T02:07:22.728Z,18.65
2022-08-24T02:09:44.189Z,18.62
2022-08-24T02:12:07.237Z,18.63
2022-08-24T02:14:30.652Z,18.68
2022-08-24T02:16:54.462Z,18.72
2022-08-24T02:19:15.947Z,18.76
2022-08-24T02:21:37.839Z,18.79
2022-08-24T02:24:00.084Z,18.81
2022-08-24T02:26:21.708Z,18.80
2022-08-24T02:28:43.558Z,18.75
2022-08-24T02:31:07.739Z,18.76
2022-08-24T02:33:30.024Z,18.77
2022-08-24T02:35:54.383Z,18.75
2022-08-24T02:38:16.085Z,18.75
2022-08-24T02:40:37.612Z,18.71
2022-08-24T02:42:59.060Z,18.56
2022-08-24T02:45:20.639Z,18.17
2022-08-24T02:47:42.499Z,18.28
2022-08-24T02:50:05.357Z,18.37
2022-08-24T02:52:26.794Z,18.32
2022-08-24T02:54:48.319Z,18.25
2022-08-24T02:57:09.865Z,18.29
2022-08-24T02:59:31.348Z,18.27
2022-08-24T03:01:53.358Z,18.10
2022-08-24T03:04:15.532Z,17.99
2022-08-24T03:06:37.338Z,18.05
2022-08-24T03:08:58.829Z,18.10
2022-08-24T03:11:20.258Z,17.99
2022-08-24T03:13:42.079Z,17.77
2022-08-24T03:16:04.453Z,17.86
2022-08-24T03:18:26.659Z,17.82
2022-08-24T03:20:49.068Z,17.79
2022-08-24T03:23:10.624Z,17.59
2022-08-24T03:25:32.583Z,17.56
2022-08-24T03:27:54.238Z,17.62
2022-08-24T03:30:18.060Z,17.62
2022-08-24T03:32:41.202Z,17.69
2022-08-24T03:35:02.813Z,17.60
2022-08-24T03:37:24.339Z,17.70
2022-08-24T03:39:47.717Z,17.73
2022-08-24T03:42:09.236Z,17.66
2022-08-24T03:44:31.249Z,17.47
2022-08-24T03:46:53.272Z,17.54
2022-08-24T03:49:14.886Z,17.55
2022-08-24T03:51:37.615Z,17.62
2022-08-24T03:54:00.601Z,17.65
2022-08-24T03:56:22.077Z,17.48
2022-08-24T03:58:43.580Z,17.38
2022-08-24T04:01:06.358Z,17.31
2022-08-24T04:03:28.302Z,17.28
2022-08-24T04:05:54.006Z,17.31
2022-08-24T04:08:17.838Z,17.32
2022-08-24T04:10:44.920Z,17.40
2022-08-24T04:13:06.467Z,17.36
2022-08-24T04:15:28.861Z,17.36
2022-08-24T04:17:50.451Z,17.40
2022-08-24T04:20:12.156Z,17.50
2022-08-24T04:22:34.262Z,17.44
2022-08-24T04:24:56.264Z,17.47
2022-08-24T04:27:18.091Z,17.28
2022-08-24T04:29:39.556Z,17.13
2022-08-24T04:32:01.117Z,17.12
2022-08-24T04:34:22.680Z,16.99
2022-08-24T04:36:45.215Z,17.03
2022-08-24T04:39:07.235Z,17.13
2022-08-24T04:41:31.240Z,17.19
2022-08-24T04:43:53.323Z,17.22
2022-08-24T04:46:19.239Z,17.15
2022-08-24T04:48:42.289Z,17.05
2022-08-24T04:51:13.459Z,17.05
2022-08-24T04:53:36.634Z,17.12
2022-08-24T04:55:59.371Z,17.12
2022-08-24T04:58:21.022Z,17.05
2022-08-24T05:00:43.707Z,17.06
2022-08-24T05:03:05.973Z,17.11
2022-08-24T05:05:27.886Z,17.15
2022-08-24T05:07:52.345Z,17.23
2022-08-24T05:10:16.169Z,17.43
2022-08-24T05:12:38.447Z,17.48
2022-08-24T05:15:00.416Z,17.35
2022-08-24T05:17:22.411Z,17.18
2022-08-24T05:19:43.893Z,17.03
2022-08-24T05:22:05.617Z,17.03
2022-08-24T05:24:27.213Z,17.07
2022-08-24T05:26:49.172Z,17.24
2022-08-24T05:29:11.934Z,17.31
2022-08-24T05:31:33.849Z,17.17
2022-08-24T05:33:56.196Z,17.15
2022-08-24T05:36:21.980Z,17.22
2022-08-24T05:38:44.029Z,17.38
2022-08-24T05:41:05.914Z,17.43
2022-08-24T05:43:27.412Z,17.53
2022-08-24T05:45:48.904Z,17.60
2022-08-24T05:48:10.383Z,17.68
2022-08-24T05:50:31.843Z,17.72
2022-08-24T05:52:53.341Z,17.86
2022-08-24T05:55:14.922Z,17.89
2022-08-24T05:57:38.101Z,17.99
2022-08-24T06:00:00.615Z,18.06
2022-08-24T06:02:23.712Z,18.17
2022-08-24T06:04:46.025Z,18.19
2022-08-24T06:07:11.671Z,18.25
2022-08-24T06:09:33.348Z,18.27
2022-08-24T06:11:55.141Z,18.39
2022-08-24T06:14:19.251Z,18.45
2022-08-24T06:16:45.805Z,18.51
2022-08-24T06:19:09.705Z,18.61
2022-08-24T06:21:31.866Z,18.65
2022-08-24T06:23:53.620Z,18.77
2022-08-24T06:26:34.628Z,18.79
2022-08-24T06:28:56.835Z,18.88
2022-08-24T06:31:19.714Z,18.95
2022-08-24T06:33:41.728Z,19.02
2022-08-24T06:36:03.671Z,19.16
2022-08-24T06:38:25.707Z,19.22
2022-08-24T06:40:47.492Z,19.24
2022-08-24T06:43:08.947Z,19.34
2022-08-24T06:45:31.041Z,19.39
2022-08-24T06:47:52.547Z,19.51
2022-08-24T06:50:14.032Z,19.62
2022-08-24T06:52:36.491Z,19.69
2022-08-24T06:54:58.008Z,19.75
2022-08-24T06:57:19.517Z,19.79
2022-08-24T06:59:43.067Z,19.85
2022-08-24T07:02:05.021Z,19.90
2022-08-24T07:04:28.413Z,19.93
2022-08-24T07:06:50.843Z,20.10
2022-08-24T07:09:12.300Z,20.25
2022-08-24T07:11:35.094Z,20.29
2022-08-24T07:13:56.617Z,20.41
2022-08-24T07:16:20.189Z,20.44
2022-08-24T07:18:43.249Z,20.46
2022-08-24T07:21:09.483Z,20.54
2022-08-24T07:23:41.546Z,20.65
2022-08-24T07:26:10.564Z,20.67
2022-08-24T07:28:42.596Z,20.83
2022-08-24T07:31:05.167Z,20.96
2022-08-24T07:33:26.677Z,21.13
2022-08-24T07:35:48.161Z,21.18
2022-08-24T07:38:12.056Z,21.37
2022-08-24T07:40:55.876Z,21.50
2022-08-24T07:43:17.592Z,21.80
2022-08-24T07:45:41.827Z,22.00
2022-08-24T07:50:30.724Z,22.27
2022-08-24T07:52:52.226Z,22.38
2022-08-24T07:55:14.541Z,22.77
2022-08-24T07:57:38.440Z,22.63
2022-08-24T08:00:02.521Z,22.91
2022-08-24T08:02:29.331Z,23.09
2022-08-24T08:04:56.605Z,23.37
2022-08-24T08:07:18.079Z,23.36
2022-08-24T08:09:40.102Z,23.43
2022-08-24T08:12:01.918Z,23.55
2022-08-24T08:14:23.374Z,23.61
2022-08-24T08:16:44.834Z,23.72
2022-08-24T08:19:10.414Z,23.97
2022-08-24T08:21:51.154Z,24.05
2022-08-24T08:24:16.133Z,24.17
2022-08-24T08:26:37.864Z,24.23
2022-08-24T08:28:59.401Z,24.26
2022-08-24T08:31:21.334Z,24.45
2022-08-24T08:33:43.485Z,24.57
2022-08-24T08:36:09.540Z,24.72
2022-08-24T08:38:31.384Z,24.79
2022-08-24T08:41:03.333Z,25.01
2022-08-24T08:43:48.259Z,25.26
2022-08-24T08:46:25.412Z,25.42
2022-08-24T08:49:14.342Z,25.70
2022-08-24T08:52:03.955Z,25.84
2022-08-24T08:54:44.401Z,26.01
2022-08-24T08:57:12.223Z,26.06
2022-08-24T08:59:58.457Z,26.24
2022-08-24T09:02:53.013Z,26.17
2022-08-24T09:05:45.250Z,26.45
2022-08-24T09:08:21.533Z,26.45
2022-08-24T09:11:10.758Z,26.55
2022-08-24T09:14:04.628Z,26.74
2022-08-24T09:17:12.748Z,26.64
2022-08-24T09:20:08.602Z,26.88
2022-08-24T09:22:37.300Z,26.97
2022-08-24T09:25:07.997Z,27.17
2022-08-24T09:27:37.737Z,27.39
2022-08-24T09:30:20.785Z,27.51
2022-08-24T09:33:20.492Z,27.34
2022-08-24T09:35:51.058Z,27.63
2022-08-24T09:38:24.614Z,27.75
2022-08-24T09:41:07.991Z,27.69
2022-08-24T09:44:03.241Z,27.66
2022-08-24T09:46:36.944Z,27.66
2022-08-24T09:49:16.500Z,27.81
2022-08-24T09:51:53.452Z,28.09
2022-08-24T09:54:33.192Z,28.38
2022-08-24T09:57:14.246Z,28.15
2022-08-24T10:00:03.505Z,28.09
2022-08-24T10:02:39.946Z,27.91
2022-08-24T10:05:10.722Z,27.85
2022-08-24T10:07:42.399Z,27.86
2022-08-24T10:10:18.936Z,27.86
2022-08-24T10:13:14.322Z,28.20
2022-08-24T10:15:46.087Z,28.22
2022-08-24T10:18:29.571Z,28.31
2022-08-24T10:21:12.316Z,28.53
2022-08-24T10:23:50.467Z,28.74
2022-08-24T10:26:49.142Z,28.86
2022-08-24T10:29:32.239Z,28.84
2022-08-24T10:32:14.450Z,29.02
2022-08-24T10:35:03.951Z,29.23
2022-08-24T10:38:12.808Z,29.47
2022-08-24T10:41:07.052Z,29.45
2022-08-24T10:43:51.420Z,29.48
2022-08-24T10:46:38.958Z,29.90
2022-08-24T10:49:19.223Z,30.09
2022-08-24T10:51:51.448Z,30.36
2022-08-24T10:54:13.454Z,30.35
2022-08-24T10:56:53.261Z,30.47
2022-08-24T10:59:43.923Z,30.60
2022-08-24T11:02:12.787Z,30.76
2022-08-24T11:04:36.416Z,30.87
2022-08-24T11:07:06.920Z,31.08
2022-08-24T11:09:54.076Z,31.29
2022-08-24T11:12:38.333Z,31.25
2022-08-24T11:15:05.002Z,31.43
2022-08-24T11:17:29.634Z,31.50
2022-08-24T11:19:52.082Z,31.62
2022-08-24T11:22:40.885Z,31.67
2022-08-24T11:25:10.393Z,31.97
2022-08-24T11:27:36.688Z,32.30
2022-08-24T11:30:01.795Z,32.19
2022-08-24T11:32:46.766Z,32.17
2022-08-24T11:35:17.497Z,32.08
2022-08-24T11:37:39.752Z,32.30
2022-08-24T11:40:02.342Z,32.20
2022-08-24T11:42:53.413Z,32.29
2022-08-24T11:45:28.734Z,32.29
2022-08-24T11:48:00.896Z,32.43
2022-08-24T11:50:43.947Z,32.78
2022-08-24T11:53:17.450Z,32.93
2022-08-24T11:55:47.225Z,33.23
2022-08-24T11:58:20.496Z,33.38
2022-08-24T12:00:56.109Z,33.43
2022-08-24T12:03:37.686Z,33.52
2022-08-24T12:06:27.640Z,33.91
2022-08-24T12:09:20.856Z,34.15
2022-08-24T12:12:05.820Z,34.18
2022-08-24T12:14:39.343Z,34.23
2022-08-24T12:17:12.915Z,34.51
2022-08-24T12:19:47.685Z,35.07
2022-08-24T12:22:10.847Z,35.53
2022-08-24T12:24:48.587Z,36.21
2022-08-24T12:27:24.587Z,36.91
2022-08-24T12:30:05.728Z,37.36
2022-08-24T12:32:37.638Z,38.07
2022-08-24T12:35:12.772Z,38.21
2022-08-24T12:37:58.072Z,39.08
2022-08-24T12:40:40.533Z,39.41
2022-08-24T12:43:18.020Z,40.20
2022-08-24T12:45:39.505Z,40.47
2022-08-24T12:48:14.927Z,40.96
2022-08-24T12:50:51.473Z,41.40
2022-08-24T12:53:31.476Z,41.98
2022-08-24T12:56:18.417Z,42.69
2022-08-24T12:59:01.370Z,42.62
2022-08-24T13:01:28.202Z,42.57
2022-08-24T13:04:37.908Z,42.41
2022-08-24T13:07:11.393Z,43.21
2022-08-24T13:09:41.196Z,43.24
2022-08-24T13:12:30.433Z,43.59
2022-08-24T13:14:54.100Z,44.15
2022-08-24T13:17:18.927Z,43.67
2022-08-24T13:19:44.541Z,44.31
2022-08-24T13:22:09.461Z,43.82
2022-08-24T13:24:30.909Z,43.72
2022-08-24T13:26:55.447Z,43.80
2022-08-24T13:29:17.261Z,42.87
2022-08-24T13:31:48.502Z,42.82
2022-08-24T13:34:10.075Z,42.96
2022-08-24T13:36:31.503Z,43.24
2022-08-24T13:39:20.801Z,43.08
2022-08-24T13:41:52.909Z,43.99
2022-08-24T13:44:44.977Z,44.00
2022-08-24T13:48:00.846Z,43.49
2022-08-24T13:50:39.771Z,42.78
2022-08-24T13:53:12.103Z,42.95
2022-08-24T13:55:55.438Z,42.85
2022-08-24T13:58:19.620Z,43.63
2022-08-24T14:00:48.509Z,43.31
2022-08-24T14:03:18.965Z,42.81
2022-08-24T14:05:59.014Z,42.17
2022-08-24T14:08:36.282Z,41.35
2022-08-24T14:11:32.643Z,40.41
2022-08-24T14:14:09.201Z,39.56
2022-08-24T14:17:19.421Z,39.73
2022-08-24T14:20:08.445Z,40.35
2022-08-24T14:22:49.179Z,40.58
2022-08-24T14:25:24.638Z,41.18
2022-08-24T14:27:49.961Z,41.56
2022-08-24T14:30:17.204Z,41.42
2022-08-24T14:32:47.761Z,41.43
2022-08-24T14:35:26.017Z,42.25
2022-08-24T14:38:12.328Z,43.33
2022-08-24T14:41:06.523Z,43.14
2022-08-24T14:44:09.493Z,42.74
2022-08-24T14:46:55.833Z,42.83
2022-08-24T14:50:12.010Z,42.65
2022-08-24T14:53:00.727Z,42.66
2022-08-24T14:55:28.820Z,42.95
2022-08-24T14:58:09.544Z,43.04
2022-08-24T15:00:51.788Z,42.82
2022-08-24T15:03:48.679Z,42.75
2022-08-24T15:06:26.674Z,42.96
2022-08-24T15:08:48.952Z,43.23
2022-08-24T15:11:30.747Z,43.37
2022-08-24T15:14:05.335Z,43.13
2022-08-24T15:16:39.035Z,42.67
2022-08-24T15:19:19.541Z,42.44
2022-08-24T15:22:37.929Z,42.04
2022-08-24T15:24:59.311Z,42.12
2022-08-24T15:27:50.398Z,42.16
2022-08-24T15:30:28.131Z,41.62
2022-08-24T15:33:08.830Z,41.53
2022-08-24T15:35:34.502Z,41.08
2022-08-24T15:37:58.387Z,41.78
2022-08-24T15:40:24.859Z,42.07
2022-08-24T15:42:48.251Z,42.40
2022-08-24T15:45:10.618Z,42.01
2022-08-24T15:47:35.896Z,41.65
2022-08-24T15:50:06.491Z,41.59
2022-08-24T15:52:39.241Z,41.63
2022-08-24T15:55:03.542Z,41.98
2022-08-24T15:57:24.938Z,41.56
2022-08-24T15:59:50.437Z,41.03
2022-08-24T16:02:29.144Z,41.07
2022-08-24T16:04:51.725Z,41.02
2022-08-24T16:07:23.466Z,40.51
2022-08-24T16:09:45.137Z,40.88
2022-08-24T16:12:12.785Z,40.59
2022-08-24T16:14:47.170Z,40.17
2022-08-24T16:17:34.170Z,40.16
2022-08-24T16:19:59.460Z,40.20
2022-08-24T16:22:35.478Z,40.29
2022-08-24T16:25:13.162Z,40.25
2022-08-24T16:27:58.007Z,40.04
2022-08-24T16:30:44.721Z,39.70
2022-08-24T16:33:09.679Z,39.82
2022-08-24T16:35:32.732Z,39.78
2022-08-24T16:37:55.683Z,39.30
2022-08-24T16:40:17.528Z,39.09
2022-08-24T16:42:40.007Z,38.85
2022-08-24T16:45:03.882Z,38.67
2022-08-24T16:47:27.392Z,38.60
2022-08-24T16:49:49.540Z,38.39
2022-08-24T16:52:11.505Z,37.95
2022-08-24T16:54:33.259Z,37.55
2022-08-24T16:56:54.835Z,36.94
2022-08-24T16:59:27.976Z,36.79
2022-08-24T17:01:50.146Z,36.88
2022-08-24T17:04:11.808Z,36.41
2022-08-24T17:06:33.345Z,36.49
2022-08-24T17:08:54.834Z,36.25
2022-08-24T17:11:17.320Z,36.12
2022-08-24T17:13:49.350Z,36.15
2022-08-24T17:16:12.740Z,35.69
2022-08-24T17:18:34.326Z,35.30
2022-08-24T17:20:55.927Z,34.81
2022-08-24T17:23:17.455Z,34.52
2022-08-24T17:25:42.302Z,34.17
2022-08-24T17:28:04.627Z,33.80
2022-08-24T17:30:26.633Z,33.65
2022-08-24T17:32:53.444Z,33.35
2022-08-24T17:35:16.362Z,33.41
2022-08-24T17:37:38.408Z,33.14
2022-08-24T17:40:01.088Z,33.07
2022-08-24T17:42:48.980Z,32.81
2022-08-24T17:45:04.800Z,32.52
2022-08-24T17:47:27.075Z,32.21
2022-08-24T17:49:48.550Z,31.98
2022-08-24T17:52:10.161Z,31.87
2022-08-24T17:54:31.781Z,31.70
2022-08-24T17:56:53.288Z,31.68
2022-08-24T17:59:24.886Z,31.59
2022-08-24T18:01:47.805Z,31.62
2022-08-24T18:04:09.283Z,31.43
2022-08-24T18:06:31.549Z,31.22
2022-08-24T18:08:56.753Z,31.10
2022-08-24T18:11:20.658Z,31.20
2022-08-24T18:13:45.420Z,31.24
2022-08-24T18:16:13.611Z,31.20
2022-08-24T18:18:35.353Z,31.21
2022-08-24T18:20:56.878Z,31.16
2022-08-24T18:23:21.227Z,31.10
2022-08-24T18:25:47.516Z,30.95
2022-08-24T18:28:09.166Z,30.83
2022-08-24T18:30:31.811Z,30.74
2022-08-24T18:32:53.771Z,30.64
2022-08-24T18:35:15.369Z,30.51
2022-08-24T18:37:37.300Z,30.34
2022-08-24T18:39:58.809Z,30.25
2022-08-24T18:42:21.803Z,30.15
2022-08-24T18:44:43.331Z,30.02
2022-08-24T18:47:05.081Z,29.88
2022-08-24T18:49:27.030Z,29.77
2022-08-24T18:51:49.198Z,29.65
2022-08-24T18:54:16.364Z,29.26
2022-08-24T18:56:38.346Z,29.08
2022-08-24T18:58:59.940Z,29.05
2022-08-24T19:01:22.847Z,28.86
2022-08-24T19:03:44.422Z,28.80
2022-08-24T19:06:07.316Z,28.60
2022-08-24T19:08:28.868Z,28.53
2022-08-24T19:10:51.624Z,28.45
2022-08-24T19:13:18.462Z,28.36
2022-08-24T19:15:40.636Z,28.21
2022-08-24T19:18:03.250Z,28.12
2022-08-24T19:20:27.106Z,27.92
2022-08-24T19:22:51.328Z,27.95
2022-08-24T19:25:18.757Z,27.64
2022-08-24T19:27:40.467Z,27.62
2022-08-24T19:30:02.401Z,27.51
2022-08-24T19:32:26.600Z,27.48
2022-08-24T19:34:48.104Z,27.36
2022-08-24T19:37:09.935Z,27.33
2022-08-24T19:39:31.778Z,26.79
2022-08-24T19:41:53.771Z,26.88
2022-08-24T19:44:36.516Z,26.83
2022-08-24T19:46:59.386Z,26.83
2022-08-24T19:49:20.986Z,26.74
2022-08-24T19:51:42.825Z,26.69
2022-08-24T19:54:05.980Z,26.55
2022-08-24T19:56:27.488Z,26.27
2022-08-24T19:58:58.742Z,26.14
2022-08-24T20:01:23.862Z,26.12
2022-08-24T20:03:45.699Z,26.02
2022-08-24T20:06:07.236Z,25.96
2022-08-24T20:08:28.740Z,25.89
2022-08-24T20:10:51.421Z,25.86
2022-08-24T20:13:13.455Z,25.63
2022-08-24T20:15:34.960Z,25.72
2022-08-24T20:17:57.953Z,25.74
2022-08-24T20:20:21.316Z,25.70
2022-08-24T20:22:42.837Z,25.64
2022-08-24T20:25:05.706Z,25.28
2022-08-24T20:27:27.922Z,25.22
2022-08-24T20:29:49.863Z,24.95
2022-08-24T20:32:11.501Z,24.71
2022-08-24T20:34:34.870Z,24.84
2022-08-24T20:36:57.783Z,24.87
2022-08-24T20:39:23.103Z,24.77
2022-08-24T20:41:45.331Z,24.79
2022-08-24T20:44:09.253Z,24.48
2022-08-24T20:46:31.825Z,24.43
2022-08-24T20:48:55.542Z,24.34
2022-08-24T20:51:17.488Z,24.18
2022-08-24T20:53:39.011Z,24.12
2022-08-24T20:56:04.600Z,24.11
2022-08-24T20:58:26.182Z,24.10
2022-08-24T21:00:48.599Z,24.04
2022-08-24T21:03:10.740Z,23.99
2022-08-24T21:05:32.546Z,23.71
2022-08-24T21:07:57.208Z,23.69
2022-08-24T21:10:21.380Z,23.45
2022-08-24T21:12:46.726Z,23.47
2022-08-24T21:15:08.480Z,23.43
2022-08-24T21:17:30.000Z,23.27
2022-08-24T21:19:51.656Z,23.32
2022-08-24T21:22:13.215Z,23.07
2022-08-24T21:24:37.741Z,23.08
2022-08-24T21:26:59.811Z,23.09
2022-08-24T21:29:24.854Z,23.14
2022-08-24T21:32:06.314Z,22.85
2022-08-24T21:34:42.760Z,22.84
2022-08-24T21:37:06.838Z,22.83
2022-08-24T21:39:28.287Z,22.79
2022-08-24T21:41:49.738Z,22.88
2022-08-24T21:44:11.178Z,22.77
2022-08-24T21:46:38.243Z,22.46
2022-08-24T21:49:00.703Z,22.35
2022-08-24T21:51:22.486Z,22.43
2022-08-24T21:53:43.961Z,22.49
2022-08-24T21:56:05.807Z,22.38
2022-08-24T21:58:27.378Z,22.34
2022-08-24T22:00:48.831Z,22.18
2022-08-24T22:03:10.371Z,22.19
2022-08-24T22:05:31.879Z,22.03
2022-08-24T22:10:14.759Z,21.95
2022-08-24T22:12:36.747Z,21.86
2022-08-24T22:14:58.195Z,21.83
2022-08-24T22:17:19.665Z,21.84
2022-08-24T22:19:41.147Z,21.83
2022-08-24T22:22:02.706Z,21.79
2022-08-24T22:24:24.185Z,21.74
2022-08-24T22:26:46.036Z,21.70
2022-08-24T22:29:09.883Z,21.55
2022-08-24T22:31:34.615Z,21.47
2022-08-24T22:33:58.263Z,21.29
2022-08-24T22:36:19.887Z,21.19
2022-08-24T22:38:41.742Z,21.16
2022-08-24T22:41:03.186Z,21.21
2022-08-24T22:43:44.627Z,21.22
2022-08-24T22:46:06.101Z,21.06
2022-08-24T22:48:27.575Z,21.01
2022-08-24T22:50:49.488Z,20.88
2022-08-24T22:53:10.922Z,20.87
2022-08-24T22:55:32.579Z,20.84
2022-08-24T22:57:54.045Z,20.94
2022-08-24T23:00:16.975Z,20.89
2022-08-24T23:02:38.567Z,20.74
2022-08-24T23:05:00.030Z,20.71
2022-08-24T23:07:21.741Z,20.71
2022-08-24T23:09:45.556Z,20.74
2022-08-24T23:12:08.783Z,20.80
2022-08-24T23:14:30.317Z,20.77
2022-08-24T23:16:53.076Z,20.74
2022-08-24T23:19:36.415Z,20.69
2022-08-24T23:21:58.072Z,20.58
2022-08-24T23:24:19.952Z,20.55
2022-08-24T23:26:42.794Z,20.55
2022-08-24T23:29:05.017Z,20.45
2022-08-24T23:31:27.277Z,20.28
2022-08-24T23:33:48.810Z,20.30
2022-08-24T23:36:15.685Z,20.13
2022-08-24T23:38:37.487Z,20.04
2022-08-24T23:40:58.967Z,19.95
2022-08-24T23:43:20.422Z,19.96
2022-08-24T23:45:41.942Z,20.01
2022-08-24T23:48:03.885Z,20.00
2022-08-24T23:50:25.514Z,20.09
2022-08-24T23:52:47.004Z,20.11
2022-08-24T23:55:20.171Z,19.90
2022-08-24T23:57:42.327Z,19.95
